Carbondale, Ohio
Current Conditions -  °F | °C
As of 2:35 PM on Wednesday 17 Dec 2014 (Local Time) from KUNI Reporting Station
Overcast Overcast  
Wind Chill: 27°   Ceiling: 2200
Heat Index: 33°   Visibility: 10mi
Dew Point: 26°   Wind: 8mph
Humidity: 74%   Direction: 290°WNW
Pressure: 30.16"   Gusts: NA
Location:  39.38°N, 82.27°W
Report Text: KUNI 171935Z AUTO 29007KT 10SM OVC022 01/M03 A3016 RMK AO2 T00081033
Loading
Personal Weather Stations






























Interactive Weather Map New forecast layout! Learn more

10-Day Weather Forecast

Advertisements
Track Severe Weather on mobile